Thursday, May 24, 2018, 12:27 AM EDT
Back to Local

KMLT, Millinocket Municipal Airport

Location: Millinocket, ME, United States Lat: 45.65
Local Time: 12:27 AM EDT ( 4:27 GMT) Lon: -68.7
Time Zone: US/Eastern Elev: 406 ft

Show me the last for .
Show Decoded

2018-05-23 23:53 METAR KMLT 240353Z AUTO 00000KT 10SM CLR 04/03 A3002 RMK AO2 SLP171 T00440028 =
2018-05-23 22:53 METAR KMLT 240253Z AUTO 08003KT 10SM CLR 06/03 A3002 RMK AO2 SLP172 T00560028
                 50008 =
2018-05-23 21:53 METAR KMLT 240153Z AUTO VRB03KT 10SM CLR 08/03 A3002 RMK AO2 SLP171 T00830033 =
2018-05-23 20:53 METAR KMLT 240053Z AUTO 03004KT 10SM CLR 09/03 A3001 RMK AO2 SLP168 T00940033 =
2018-05-23 19:53 METAR KMLT 232353Z AUTO 04004KT 10SM FEW060 11/04 A2999 RMK AO2 SLP163 60000
                 T01110039 10150 20111 53027 =
2018-05-23 18:53 METAR KMLT 232253Z AUTO 01007KT 10SM FEW055 13/04 A2996 RMK AO2 SLP151 T01330044
                 =
2018-05-23 17:53 METAR KMLT 232153Z AUTO 32009KT 10SM FEW055 14/03 A2993 RMK AO2 SLP140 T01440028
                 =
2018-05-23 16:53 METAR KMLT 232053Z AUTO 34008KT 10SM SCT055 14/04 A2991 RMK AO2 SLP135 60000
                 T01440044 53018 =
2018-05-23 15:53 METAR KMLT 231953Z AUTO 35009KT 10SM BKN031 OVC045 14/08 A2989 RMK AO2 SLP126
                 T01390078 =
2018-05-23 15:07 METAR KMLT 231907Z AUTO 35006KT 10SM FEW019 FEW025 OVC032 13/08 A2988 RMK AO2
                 T01330083 =
2018-05-23 14:53 METAR KMLT 231853Z AUTO 34008KT 10SM FEW019 BKN027 OVC032 13/08 A2988 RMK AO2
                 RAB31E42 SLP122 P0000 T01330083 =
2018-05-23 14:28 METAR KMLT 231828Z AUTO 01005KT 10SM BKN025 OVC055 13/09 A2987 RMK AO2 T01330089
                 =
2018-05-23 13:53 METAR KMLT 231753Z AUTO 03007KT 10SM OVC055 13/09 A2986 RMK AO2 RAE01 SLP117
                 P0000 60000 T01330089 10194 20128 50015 =
2018-05-23 13:16 METAR KMLT 231716Z AUTO 01005KT 10SM OVC039 13/08 A2986 RMK AO2 LTG DSNT NE AND
                 E RAE01 P0000 T01280078 =
2018-05-23 12:53 METAR KMLT 231653Z AUTO 34009KT 10SM VCTS -RA OVC037 14/08 A2987 RMK AO2 WSHFT
                 1603 LTG DSNT N AND NE RAB51 SLP120 P0000 T01390083 =
2018-05-23 12:44 METAR KMLT 231644Z AUTO 34012G16KT 10SM VCTS OVC032 14/07 A2988 RMK AO2 WSHFT
                 1603 LTG DSNT N AND NW PRESRR T01390072 =
2018-05-23 12:23 METAR KMLT 231623Z AUTO 03010G19KT 10SM OVC031 14/07 A2984 RMK AO2 WSHFT 1603
                 LTG DSNT NW T01440072 =
2018-05-23 11:53 METAR KMLT 231553Z AUTO 31008KT 10SM BKN037 BKN044 OVC100 18/11 A2982 RMK AO2
                 SLP103 T01830106 =
2018-05-23 10:53 METAR KMLT 231453Z AUTO 30011G16KT 10SM BKN035 19/09 A2982 RMK AO2 SLP100
                 T01890094 55006 =
2018-05-23 09:53 METAR KMLT 231353Z AUTO 28007KT 10SM FEW026 18/11 A2981 RMK AO2 SLP099 T01830106
                 =
2018-05-23 08:53 METAR KMLT 231253Z AUTO 27006KT 10SM SCT038 17/11 A2982 RMK AO2 SLP103 T01670106
                 =
2018-05-23 07:53 METAR KMLT 231153Z AUTO 00000KT 10SM SCT006 BKN037 14/12 A2983 RMK AO2 SLP106
                 60004 70009 T01390117 10139 20117 53003 =
2018-05-23 07:45 METAR KMLT 231145Z AUTO 00000KT 10SM SCT006 BKN037 13/12 A2983 RMK AO2 T01330117
                 =
2018-05-23 07:18 METAR KMLT 231118Z AUTO VRB04KT 10SM BKN007 13/12 A2983 RMK AO2 T01330117 =
2018-05-23 06:53 METAR KMLT 231053Z AUTO 00000KT 10SM FEW006 13/11 A2983 RMK AO2 SLP105 T01280111
                 =
2018-05-23 06:41 METAR KMLT 231041Z AUTO 00000KT 10SM FEW006 12/11 A2983 RMK AO2 T01220111 =
2018-05-23 05:53 METAR KMLT 230953Z AUTO 00000KT 10SM BKN038 12/11 A2982 RMK AO2 SLP102 T01170106
                 =
2018-05-23 04:53 METAR KMLT 230853Z AUTO 00000KT 10SM FEW024 OVC043 12/11 A2982 RMK AO2 SLP103
                 60004 T01220106 57003 =
2018-05-23 04:48 METAR KMLT 230848Z AUTO 00000KT 10SM SCT024 OVC043 12/11 A2982 RMK AO2 =
2018-05-23 04:24 METAR KMLT 230824Z AUTO 00000KT 10SM BKN024 BKN041 12/11 A2984 RMK AO2 T01220111
                 =
2018-05-23 03:53 METAR KMLT 230753Z AUTO 00000KT 8SM FEW026 BKN041 BKN075 12/11 A2983 RMK AO2
                 SLP105 T01220111 =
2018-05-23 03:50 METAR KMLT 230750Z AUTO 00000KT 8SM SCT024 BKN041 OVC090 12/11 A2983 RMK AO2 =
2018-05-23 03:28 METAR KMLT 230728Z AUTO 00000KT 10SM BKN023 OVC034 13/11 A2985 RMK AO2 T01280111
                 =
2018-05-23 02:53 METAR KMLT 230653Z AUTO 00000KT 10SM BKN040 OVC050 13/11 A2985 RMK AO2 RAE52
                 SLP113 P0004 T01280111 =
2018-05-23 01:53 METAR KMLT 230553Z AUTO 00000KT 7SM -RA OVC050 13/11 A2987 RMK AO2 SLP117 P0005
                 60005 T01280111 10194 20128 56010 =
2018-05-23 00:53 METAR KMLT 230453Z AUTO VRB03KT 9SM -RA OVC050 15/09 A2987 RMK AO2 RAB03E18B51
                 SLP119 P0000 T01500094 402390039 =

Support USWX by starting your Amazon purchase here.